createdAt,value
2023-04-01T00:03:06.237Z,9.83
2023-04-01T00:08:08.818Z,10.17
2023-04-01T00:13:14.354Z,10.30
2023-04-01T00:18:17.221Z,10.18
2023-04-01T00:23:21.249Z,10.32
2023-04-01T00:28:29.872Z,10.07
2023-04-01T00:33:32.492Z,9.99
2023-04-01T00:38:35.808Z,9.94
2023-04-01T00:43:38.381Z,9.87
2023-04-01T00:48:44.990Z,10.06
2023-04-01T00:53:51.152Z,10.01
2023-04-01T00:58:59.461Z,10.02
2023-04-01T01:04:05.015Z,9.91
2023-04-01T01:09:27.533Z,9.93
2023-04-01T01:15:07.837Z,9.99
2023-04-01T01:20:33.365Z,9.63
2023-04-01T01:26:00.030Z,9.32
2023-04-01T01:31:26.618Z,9.30
2023-04-01T01:36:36.043Z,9.50
2023-04-01T01:41:44.132Z,9.30
2023-04-01T01:46:49.053Z,9.24
2023-04-01T01:51:51.656Z,9.24
2023-04-01T01:57:04.526Z,9.22
2023-04-01T02:02:09.840Z,9.26
2023-04-01T02:07:19.597Z,9.25
2023-04-01T02:12:24.871Z,9.12
2023-04-01T02:17:31.195Z,9.22
2023-04-01T02:22:38.216Z,9.19
2023-04-01T02:27:43.994Z,9.10
2023-04-01T02:32:47.656Z,9.31
2023-04-01T02:37:51.798Z,9.40
2023-04-01T02:42:54.965Z,9.11
2023-04-01T02:47:57.522Z,8.95
2023-04-01T02:53:00.098Z,9.01
2023-04-01T02:58:03.085Z,9.01
2023-04-01T03:03:06.578Z,9.08
2023-04-01T03:08:09.370Z,8.85
2023-04-01T03:13:12.091Z,8.81
2023-04-01T03:18:14.794Z,8.96
2023-04-01T03:23:20.588Z,8.84
2023-04-01T03:28:23.107Z,8.90
2023-04-01T03:33:25.843Z,8.77
2023-04-01T03:38:28.424Z,8.81
2023-04-01T03:43:31.123Z,8.82
2023-04-01T03:48:34.221Z,8.85
2023-04-01T03:53:37.290Z,8.84
2023-04-01T03:58:42.005Z,8.78
2023-04-01T04:03:45.911Z,8.86
2023-04-01T04:08:50.344Z,8.78
2023-04-01T04:13:54.020Z,8.82
2023-04-01T04:18:57.045Z,8.76
2023-04-01T04:24:04.604Z,8.61
2023-04-01T04:29:27.149Z,8.49
2023-04-01T04:34:29.709Z,8.50
2023-04-01T04:39:32.684Z,8.41
2023-04-01T04:44:35.673Z,8.31
2023-04-01T04:49:38.337Z,8.34
2023-04-01T04:54:44.620Z,8.39
2023-04-01T04:59:47.286Z,8.25
2023-04-01T05:04:55.770Z,8.23
2023-04-01T05:09:58.342Z,8.28
2023-04-01T05:15:01.505Z,8.20
2023-04-01T05:20:05.400Z,8.19
2023-04-01T05:25:08.293Z,8.27
2023-04-01T05:30:11.643Z,8.36
2023-04-01T05:35:28.733Z,8.43
2023-04-01T05:40:31.919Z,8.58
2023-04-01T05:45:35.673Z,8.74
2023-04-01T05:50:38.239Z,8.83
2023-04-01T05:55:41.540Z,8.94
2023-04-01T06:00:44.714Z,9.10
2023-04-01T06:05:48.903Z,9.32
2023-04-01T06:11:06.312Z,9.15
2023-04-01T06:16:28.362Z,9.43
2023-04-01T06:21:55.244Z,9.69
2023-04-01T06:27:15.771Z,9.79
2023-04-01T06:32:25.375Z,9.85
2023-04-01T06:37:59.757Z,9.99
2023-04-01T06:43:10.035Z,9.98
2023-04-01T06:48:38.517Z,9.76
2023-04-01T06:54:02.858Z,9.82
2023-04-01T06:59:33.232Z,9.92
2023-04-01T07:04:44.330Z,9.81
2023-04-01T07:09:55.210Z,9.77
2023-04-01T07:15:44.798Z,9.94
2023-04-01T07:20:50.130Z,9.87
2023-04-01T07:26:16.175Z,9.82
2023-04-01T07:31:37.202Z,9.91
2023-04-01T07:37:02.560Z,9.98
2023-04-01T07:42:23.594Z,10.01
2023-04-01T07:47:42.707Z,9.84
2023-04-01T07:52:54.372Z,9.82
2023-04-01T07:58:22.109Z,9.82
2023-04-01T08:03:35.961Z,10.24
2023-04-01T08:09:02.856Z,10.28
2023-04-01T08:14:49.114Z,10.15
2023-04-01T08:20:28.784Z,10.19
2023-04-01T08:25:52.654Z,10.36
2023-04-01T08:31:04.722Z,10.06
2023-04-01T08:36:26.022Z,10.41
2023-04-01T08:42:10.805Z,10.23
2023-04-01T08:47:43.441Z,9.93
2023-04-01T08:52:53.752Z,9.69
2023-04-01T08:58:15.016Z,9.64
2023-04-01T09:03:28.108Z,9.64
2023-04-01T09:08:46.115Z,9.80
2023-04-01T09:14:10.680Z,9.97
2023-04-01T09:19:44.373Z,10.32
2023-04-01T09:25:07.946Z,10.59
2023-04-01T09:30:34.211Z,10.83
2023-04-01T09:35:51.912Z,11.46
2023-04-01T09:41:07.870Z,10.83
2023-04-01T09:46:56.518Z,10.70
2023-04-01T09:52:30.301Z,10.45
2023-04-01T09:57:54.550Z,10.45
2023-04-01T10:03:41.681Z,10.45
2023-04-01T10:09:18.987Z,10.40
2023-04-01T10:15:00.948Z,10.59
2023-04-01T10:20:18.572Z,10.90
2023-04-01T10:25:31.444Z,11.19
2023-04-01T10:30:59.813Z,11.85
2023-04-01T10:36:31.239Z,12.16
2023-04-01T10:41:53.197Z,11.42
2023-04-01T10:47:29.431Z,11.43
2023-04-01T10:52:32.120Z,11.34
2023-04-01T10:58:18.048Z,11.19
2023-04-01T11:04:29.858Z,11.08
2023-04-01T11:09:58.362Z,11.23
2023-04-01T11:15:25.814Z,11.60
2023-04-01T11:20:59.727Z,11.40
2023-04-01T11:26:07.281Z,12.27
2023-04-01T11:31:30.539Z,12.56
2023-04-01T11:37:14.891Z,12.29
2023-04-01T11:42:42.203Z,12.20
2023-04-01T11:48:37.466Z,11.94
2023-04-01T11:54:04.680Z,11.95
2023-04-01T11:59:51.725Z,11.67
2023-04-01T12:05:19.502Z,11.56
2023-04-01T12:10:41.692Z,11.57
2023-04-01T12:16:19.079Z,11.89
2023-04-01T12:21:38.800Z,11.83
2023-04-01T12:27:11.641Z,11.53
2023-04-01T12:33:08.012Z,11.56
2023-04-01T12:38:32.131Z,12.09
2023-04-01T12:43:57.082Z,12.39
2023-04-01T12:49:28.758Z,12.05
2023-04-01T12:55:01.001Z,12.08
2023-04-01T13:00:24.652Z,12.17
2023-04-01T13:05:39.394Z,12.10
2023-04-01T13:11:15.716Z,11.96
2023-04-01T13:16:27.724Z,11.89
2023-04-01T13:22:14.608Z,11.91
2023-04-01T13:27:30.876Z,12.13
2023-04-01T13:33:04.413Z,12.14
2023-04-01T13:38:38.949Z,12.09
2023-04-01T13:43:50.730Z,11.87
2023-04-01T13:49:38.074Z,11.93
2023-04-01T13:55:05.689Z,12.07
2023-04-01T14:00:17.990Z,12.04
2023-04-01T14:05:43.125Z,11.90
2023-04-01T14:10:52.385Z,12.58
2023-04-01T14:16:07.139Z,12.43
2023-04-01T14:21:24.694Z,12.49
2023-04-01T14:27:26.220Z,12.47
2023-04-01T14:33:10.049Z,12.87
2023-04-01T14:38:54.954Z,12.63
2023-04-01T14:44:16.545Z,12.29
2023-04-01T14:49:34.349Z,12.35
2023-04-01T14:54:42.055Z,12.11
2023-04-01T14:59:52.177Z,12.23
2023-04-01T15:05:31.713Z,12.09
2023-04-01T15:11:04.423Z,12.27
2023-04-01T15:16:19.250Z,12.18
2023-04-01T15:21:24.574Z,11.98
2023-04-01T15:26:54.584Z,12.00
2023-04-01T15:32:09.609Z,12.14
2023-04-01T15:37:34.991Z,11.99
2023-04-01T15:43:05.734Z,12.21
2023-04-01T15:48:11.147Z,12.09
2023-04-01T15:53:25.692Z,12.21
2023-04-01T15:58:38.015Z,11.99
2023-04-01T16:03:57.046Z,11.94
2023-04-01T16:09:23.861Z,11.78
2023-04-01T16:15:20.773Z,12.35
2023-04-01T16:20:43.075Z,11.96
2023-04-01T16:26:07.235Z,11.56
2023-04-01T16:31:28.669Z,11.44
2023-04-01T16:36:49.898Z,11.57
2023-04-01T16:42:13.861Z,12.07
2023-04-01T16:47:29.651Z,12.06
2023-04-01T16:52:50.791Z,11.94
2023-04-01T16:57:59.661Z,11.84
2023-04-01T17:03:43.748Z,11.86
2023-04-01T17:09:18.094Z,12.06
2023-04-01T17:14:44.572Z,11.80
2023-04-01T17:20:01.833Z,11.45
2023-04-01T17:25:15.968Z,11.46
2023-04-01T17:30:28.510Z,11.55
2023-04-01T17:35:40.426Z,11.52
2023-04-01T17:41:27.987Z,11.64
2023-04-01T17:46:45.919Z,11.72
2023-04-01T17:52:32.432Z,11.80
2023-04-01T17:58:11.926Z,11.83
2023-04-01T18:03:26.770Z,12.01
2023-04-01T18:09:19.234Z,11.99
2023-04-01T18:15:06.769Z,11.96
2023-04-01T18:20:45.537Z,11.88
2023-04-01T18:25:53.237Z,11.63
2023-04-01T18:31:04.518Z,11.08
2023-04-01T18:36:16.482Z,10.72
2023-04-01T18:41:28.146Z,10.72
2023-04-01T18:46:54.042Z,10.34
2023-04-01T18:52:04.261Z,10.20
2023-04-01T18:57:14.896Z,10.12
2023-04-01T19:02:17.525Z,9.95
2023-04-01T19:07:38.571Z,9.90
2023-04-01T19:13:11.133Z,9.95
2023-04-01T19:18:42.859Z,10.00
2023-04-01T19:30:15.189Z,10.00
2023-04-01T19:35:40.843Z,9.93
2023-04-01T19:40:59.153Z,9.81
2023-04-01T19:46:38.274Z,9.81
2023-04-01T19:51:52.738Z,9.89
2023-04-01T19:57:01.019Z,9.80
2023-04-01T20:02:09.737Z,9.91
2023-04-01T20:07:38.982Z,9.99
2023-04-01T20:12:58.141Z,9.95
2023-04-01T20:18:14.909Z,9.85
2023-04-01T20:23:48.443Z,9.84
2023-04-01T20:29:14.179Z,9.80
2023-04-01T20:34:28.370Z,9.73
2023-04-01T20:39:49.388Z,9.72
2023-04-01T20:45:16.762Z,9.77
2023-04-01T20:50:31.882Z,9.82
2023-04-01T20:56:05.917Z,9.77
2023-04-01T21:01:14.444Z,9.83
2023-04-01T21:06:52.492Z,9.77
2023-04-01T21:12:14.283Z,9.78
2023-04-01T21:17:24.962Z,9.88
2023-04-01T21:22:47.859Z,9.77
2023-04-01T21:28:11.746Z,9.69
2023-04-01T21:33:36.372Z,9.80
2023-04-01T21:39:08.505Z,9.82
2023-04-01T21:44:38.132Z,9.90
2023-04-01T21:50:08.996Z,9.84
2023-04-01T21:55:50.431Z,9.61
2023-04-01T22:01:40.623Z,9.65
2023-04-01T22:06:49.762Z,9.61
2023-04-01T22:12:08.990Z,9.66
2023-04-01T22:17:49.936Z,9.49
2023-04-01T22:22:58.193Z,9.53
2023-04-01T22:28:09.263Z,9.52
2023-04-01T22:33:34.327Z,9.50
2023-04-01T22:39:05.104Z,9.48
2023-04-01T22:44:26.877Z,9.53
2023-04-01T22:49:49.579Z,9.51
2023-04-01T22:55:00.958Z,9.54
2023-04-01T23:00:31.335Z,9.52
2023-04-01T23:05:41.507Z,9.63
2023-04-01T23:11:03.770Z,9.58
2023-04-01T23:16:09.434Z,9.49
2023-04-01T23:21:41.604Z,9.30
2023-04-01T23:26:53.822Z,9.37
2023-04-01T23:32:05.058Z,9.48
2023-04-01T23:37:17.852Z,9.49
2023-04-01T23:42:30.171Z,9.44
2023-04-01T23:47:36.853Z,9.36
2023-04-01T23:52:47.060Z,9.24
2023-04-01T23:58:27.477Z,9.25
